createdAt,value
2023-01-20T00:00:04.549Z,47.08
2023-01-20T00:00:27.329Z,43.45
2023-01-20T00:00:50.166Z,44.13
2023-01-20T00:01:13.088Z,44.92
2023-01-20T00:01:37.469Z,42.63
2023-01-20T00:02:00.212Z,39.38
2023-01-20T00:02:23.098Z,40.25
2023-01-20T00:02:45.989Z,38.25
2023-01-20T00:03:08.867Z,40.42
2023-01-20T00:03:31.766Z,40.63
2023-01-20T00:03:54.866Z,41.17
2023-01-20T00:04:20.504Z,42.78
2023-01-20T00:04:43.210Z,42.28
2023-01-20T00:05:08.043Z,41.63
2023-01-20T00:05:30.864Z,48.88
2023-01-20T00:05:53.738Z,47.55
2023-01-20T00:06:16.498Z,44.88
2023-01-20T00:06:39.278Z,44.47
2023-01-20T00:07:01.998Z,41.65
2023-01-20T00:07:24.993Z,41.45
2023-01-20T00:07:47.693Z,42.05
2023-01-20T00:08:10.414Z,39.92
2023-01-20T00:08:33.134Z,45.35
2023-01-20T00:08:56.698Z,48.42
2023-01-20T00:09:19.519Z,41.50
2023-01-20T00:09:42.248Z,45.70
2023-01-20T00:10:07.238Z,49.35
2023-01-20T00:10:29.975Z,52.58
2023-01-20T00:10:52.783Z,49.15
2023-01-20T00:11:15.567Z,45.95
2023-01-20T00:11:38.413Z,62.70
2023-01-20T00:12:01.277Z,63.42
2023-01-20T00:12:29.930Z,59.90
2023-01-20T00:12:54.300Z,48.55
2023-01-20T00:13:17.053Z,51.65
2023-01-20T00:13:42.274Z,61.30
2023-01-20T00:14:05.224Z,61.13
2023-01-20T00:14:28.179Z,58.78
2023-01-20T00:14:53.643Z,63.45
2023-01-20T00:15:16.597Z,69.32
2023-01-20T00:15:39.455Z,53.45
2023-01-20T00:16:02.753Z,54.95
2023-01-20T00:16:25.587Z,56.20
2023-01-20T00:16:48.277Z,46.72
2023-01-20T00:17:11.209Z,53.45
2023-01-20T00:17:34.083Z,50.90
2023-01-20T00:17:58.283Z,48.58
2023-01-20T00:18:20.984Z,47.95
2023-01-20T00:18:43.712Z,49.25
2023-01-20T00:19:06.820Z,52.85
2023-01-20T00:19:32.049Z,60.35
2023-01-20T00:19:54.803Z,47.45
2023-01-20T00:20:18.031Z,66.05
2023-01-20T00:20:40.838Z,53.85
2023-01-20T00:21:04.516Z,54.55
2023-01-20T00:21:27.390Z,74.25
2023-01-20T00:21:50.181Z,62.42
2023-01-20T00:22:13.120Z,57.80
2023-01-20T00:22:40.105Z,57.35
2023-01-20T00:23:02.932Z,55.78
2023-01-20T00:23:25.679Z,78.53
2023-01-20T00:23:48.604Z,62.75
2023-01-20T00:24:11.452Z,66.78
2023-01-20T00:24:34.404Z,55.40
2023-01-20T00:24:57.299Z,55.08
2023-01-20T00:25:20.933Z,74.70
2023-01-20T00:25:43.810Z,67.60
2023-01-20T00:26:07.067Z,69.95
2023-01-20T00:26:29.918Z,67.10
2023-01-20T00:26:52.699Z,50.40
2023-01-20T00:27:16.152Z,62.65
2023-01-20T00:27:38.994Z,52.58
2023-01-20T00:28:03.239Z,52.85
2023-01-20T00:28:26.027Z,50.38
2023-01-20T00:28:48.854Z,45.20
2023-01-20T00:29:12.633Z,48.15
2023-01-20T00:29:35.422Z,58.47
2023-01-20T00:29:58.311Z,56.08
2023-01-20T00:30:21.097Z,55.58
2023-01-20T00:30:43.860Z,51.35
2023-01-20T00:31:14.011Z,60.45
2023-01-20T00:31:36.923Z,63.20
2023-01-20T00:31:59.814Z,61.20
2023-01-20T00:32:22.559Z,48.88
2023-01-20T00:32:45.704Z,46.97
2023-01-20T00:33:08.501Z,51.72
2023-01-20T00:33:31.245Z,51.45
2023-01-20T00:33:55.006Z,57.00
2023-01-20T00:34:17.770Z,45.33
2023-01-20T00:34:40.499Z,51.63
2023-01-20T00:35:03.250Z,55.78
2023-01-20T00:35:25.974Z,56.08
2023-01-20T00:35:48.791Z,50.78
2023-01-20T00:36:12.007Z,53.22
2023-01-20T00:36:35.340Z,56.45
2023-01-20T00:36:58.101Z,51.55
2023-01-20T00:37:20.849Z,49.00
2023-01-20T00:37:43.753Z,61.25
2023-01-20T00:38:06.565Z,71.80
2023-01-20T00:38:29.292Z,64.45
2023-01-20T00:38:52.181Z,52.08
2023-01-20T00:39:15.045Z,113.80
2023-01-20T00:39:37.795Z,70.03
2023-01-20T00:40:00.506Z,54.25
2023-01-20T00:40:23.214Z,46.88
2023-01-20T00:40:45.930Z,65.22
2023-01-20T00:41:08.889Z,59.60
2023-01-20T00:41:31.650Z,72.20
2023-01-20T00:41:54.366Z,71.88
2023-01-20T00:42:17.174Z,66.35
2023-01-20T00:42:39.912Z,50.58
2023-01-20T00:43:04.165Z,57.72
2023-01-20T00:43:27.885Z,55.83
2023-01-20T00:43:50.655Z,62.22
2023-01-20T00:44:13.454Z,51.78
2023-01-20T00:44:37.009Z,53.05
2023-01-20T00:44:59.770Z,47.97
2023-01-20T00:45:22.566Z,52.22
2023-01-20T00:45:45.404Z,41.88
2023-01-20T00:46:08.220Z,42.50
2023-01-20T00:46:31.065Z,47.95
2023-01-20T00:46:53.936Z,49.75
2023-01-20T00:47:16.724Z,56.38
2023-01-20T00:47:39.508Z,45.72
2023-01-20T00:48:02.260Z,49.13
2023-01-20T00:48:25.009Z,59.58
2023-01-20T00:48:47.850Z,68.28
2023-01-20T00:49:10.615Z,49.28
2023-01-20T00:49:33.413Z,49.10
2023-01-20T00:49:56.274Z,42.83
2023-01-20T00:50:19.189Z,41.90
2023-01-20T00:50:42.305Z,47.63
2023-01-20T00:51:05.415Z,53.90
2023-01-20T00:51:28.166Z,47.53
2023-01-20T00:51:50.913Z,41.60
2023-01-20T00:52:13.635Z,40.65
2023-01-20T00:52:36.362Z,45.42
2023-01-20T00:52:59.080Z,40.83
2023-01-20T00:53:21.835Z,39.08
2023-01-20T00:53:44.575Z,43.67
2023-01-20T00:54:07.289Z,65.65
2023-01-20T00:54:30.015Z,56.72
2023-01-20T00:54:52.730Z,37.47
2023-01-20T00:55:15.969Z,54.97
2023-01-20T00:55:38.904Z,53.88
2023-01-20T00:56:01.784Z,66.13
2023-01-20T00:56:24.645Z,74.93
2023-01-20T00:56:47.449Z,70.15
2023-01-20T00:57:10.244Z,68.63
2023-01-20T00:57:33.111Z,74.40
2023-01-20T00:57:55.835Z,64.93
2023-01-20T00:58:20.074Z,77.72
2023-01-20T00:58:44.373Z,69.97
2023-01-20T00:59:09.255Z,44.20
2023-01-20T00:59:32.002Z,69.60
2023-01-20T00:59:54.733Z,85.80
2023-01-20T01:00:19.283Z,47.08
2023-01-20T01:00:42.130Z,43.15
2023-01-20T01:01:05.281Z,51.55
2023-01-20T01:01:28.144Z,42.75
2023-01-20T01:01:50.999Z,52.90
2023-01-20T01:02:13.952Z,56.90
2023-01-20T01:02:38.953Z,41.45
2023-01-20T01:03:01.759Z,45.35
2023-01-20T01:03:24.770Z,46.63
2023-01-20T01:03:47.483Z,43.38
2023-01-20T01:04:10.329Z,37.67
2023-01-20T01:04:33.126Z,35.80
2023-01-20T01:04:55.844Z,38.25
2023-01-20T01:05:18.664Z,37.08
2023-01-20T01:05:41.563Z,38.55
2023-01-20T01:06:12.253Z,40.35
2023-01-20T01:06:35.075Z,38.20
2023-01-20T01:06:57.845Z,49.45
2023-01-20T01:07:20.744Z,45.67
2023-01-20T01:07:43.876Z,37.38
2023-01-20T01:08:06.716Z,35.28
2023-01-20T01:08:29.397Z,33.80
2023-01-20T01:08:53.287Z,35.08
2023-01-20T01:09:16.074Z,38.70
2023-01-20T01:09:38.734Z,39.85
2023-01-20T01:10:01.457Z,37.58
2023-01-20T01:10:24.224Z,35.78
2023-01-20T01:10:46.986Z,34.55
2023-01-20T01:11:10.489Z,36.30
2023-01-20T01:11:33.239Z,44.05
2023-01-20T01:11:56.059Z,36.05
2023-01-20T01:12:18.769Z,34.55
2023-01-20T01:12:41.518Z,37.80
2023-01-20T01:13:04.523Z,37.25
2023-01-20T01:13:28.580Z,36.35
2023-01-20T01:13:51.371Z,37.05
2023-01-20T01:14:14.251Z,41.55
2023-01-20T01:14:36.988Z,38.42
2023-01-20T01:14:59.699Z,35.30
2023-01-20T01:15:22.454Z,35.22
2023-01-20T01:15:50.030Z,34.95
2023-01-20T01:16:13.302Z,37.83
2023-01-20T01:16:36.385Z,43.38
2023-01-20T01:16:59.129Z,42.63
2023-01-20T01:17:23.903Z,41.95
2023-01-20T01:17:46.733Z,45.90
2023-01-20T01:18:09.509Z,48.83
2023-01-20T01:18:32.214Z,44.28
2023-01-20T01:18:55.078Z,39.20
2023-01-20T01:19:18.899Z,46.65
2023-01-20T01:19:41.728Z,68.75
2023-01-20T01:20:05.291Z,90.47
2023-01-20T01:20:28.988Z,68.85
2023-01-20T01:20:51.739Z,51.15
2023-01-20T01:21:16.185Z,41.88
2023-01-20T01:21:39.175Z,44.88
2023-01-20T01:22:02.030Z,53.33
2023-01-20T01:22:24.821Z,74.28
2023-01-20T01:22:47.619Z,71.35
2023-01-20T01:23:10.464Z,58.20
2023-01-20T01:23:33.248Z,35.80
2023-01-20T01:23:56.013Z,37.65
2023-01-20T01:24:18.805Z,36.58
2023-01-20T01:24:44.664Z,37.88
2023-01-20T01:25:08.023Z,37.97
2023-01-20T01:25:31.093Z,40.03
2023-01-20T01:25:53.858Z,38.33
2023-01-20T01:26:17.694Z,42.33
2023-01-20T01:26:40.405Z,43.58
2023-01-20T01:27:04.566Z,41.78
2023-01-20T01:27:28.547Z,48.90
2023-01-20T01:27:51.290Z,41.13
2023-01-20T01:28:14.047Z,33.47
2023-01-20T01:28:38.273Z,33.60
2023-01-20T01:29:03.553Z,34.15
2023-01-20T01:29:26.389Z,32.80
2023-01-20T01:29:49.252Z,36.67
2023-01-20T01:30:13.008Z,44.92
2023-01-20T01:30:35.790Z,35.22
2023-01-20T01:31:01.523Z,42.80
2023-01-20T01:31:24.517Z,41.90
2023-01-20T01:31:50.038Z,39.67
2023-01-20T01:32:12.790Z,34.67
2023-01-20T01:32:35.552Z,32.30
2023-01-20T01:32:58.260Z,35.00
2023-01-20T01:33:21.028Z,37.63
2023-01-20T01:33:43.860Z,36.47
2023-01-20T01:34:06.628Z,35.63
2023-01-20T01:34:29.376Z,32.45
2023-01-20T01:34:52.099Z,32.63
2023-01-20T01:35:15.265Z,34.38
2023-01-20T01:35:38.507Z,32.17
2023-01-20T01:36:01.963Z,31.35
2023-01-20T01:36:24.970Z,30.67
2023-01-20T01:36:48.209Z,29.98
2023-01-20T01:37:11.289Z,29.98
2023-01-20T01:37:34.071Z,30.08
2023-01-20T01:37:56.832Z,30.23
2023-01-20T01:38:19.665Z,30.85
2023-01-20T01:38:42.508Z,30.33
2023-01-20T01:39:05.204Z,30.60
2023-01-20T01:39:28.834Z,30.63
2023-01-20T01:39:54.089Z,29.80
2023-01-20T01:40:17.326Z,29.77
2023-01-20T01:40:40.166Z,29.45
2023-01-20T01:41:02.933Z,30.30
2023-01-20T01:41:25.819Z,32.22
2023-01-20T01:41:48.643Z,31.08
2023-01-20T01:42:12.347Z,29.83
2023-01-20T01:42:35.053Z,33.50
2023-01-20T01:42:57.852Z,36.72
2023-01-20T01:43:24.574Z,32.08
2023-01-20T01:44:03.572Z,31.52
2023-01-20T01:44:28.059Z,30.92
2023-01-20T01:45:25.082Z,32.55
2023-01-20T01:45:48.000Z,29.77
2023-01-20T01:46:10.833Z,30.40
2023-01-20T01:46:33.557Z,31.08
2023-01-20T01:46:56.322Z,31.70
2023-01-20T01:47:19.291Z,26.38
2023-01-20T01:47:43.134Z,27.13
2023-01-20T01:48:07.507Z,27.08
2023-01-20T01:48:32.053Z,25.52
2023-01-20T01:48:54.889Z,26.42
2023-01-20T01:49:19.699Z,26.40
2023-01-20T01:49:42.398Z,28.27
2023-01-20T01:50:06.654Z,27.17
2023-01-20T01:50:33.182Z,26.17
2023-01-20T01:50:58.259Z,28.13
2023-01-20T01:51:22.269Z,26.92
2023-01-20T01:51:47.020Z,26.25
2023-01-20T01:52:09.824Z,28.65
2023-01-20T01:52:32.541Z,41.72
2023-01-20T01:52:56.341Z,38.72
2023-01-20T01:53:19.050Z,39.67
2023-01-20T01:53:44.355Z,36.25
2023-01-20T01:54:16.999Z,29.52
2023-01-20T01:54:40.625Z,39.55
2023-01-20T01:55:03.453Z,36.53
2023-01-20T01:55:28.207Z,29.23
2023-01-20T01:55:52.506Z,32.03
2023-01-20T01:56:17.827Z,29.42
2023-01-20T01:56:41.847Z,30.77
2023-01-20T01:57:04.816Z,28.33
2023-01-20T01:57:27.502Z,35.13
2023-01-20T01:57:50.256Z,32.15
2023-01-20T01:58:15.803Z,29.70
2023-01-20T01:58:40.043Z,29.80
2023-01-20T01:59:04.217Z,28.65
2023-01-20T01:59:27.032Z,27.77
2023-01-20T01:59:49.798Z,29.75
2023-01-20T02:00:13.126Z,29.42
2023-01-20T02:00:35.945Z,28.98
2023-01-20T02:00:58.908Z,31.55
2023-01-20T02:01:21.960Z,34.75
2023-01-20T02:01:46.958Z,29.05
2023-01-20T02:02:10.125Z,28.48
2023-01-20T02:02:32.969Z,26.30
2023-01-20T02:02:55.765Z,26.50
2023-01-20T02:03:18.671Z,28.45
2023-01-20T02:03:44.815Z,26.55
2023-01-20T02:04:09.993Z,27.83
2023-01-20T02:04:34.113Z,28.02
2023-01-20T02:04:56.824Z,27.00
2023-01-20T02:05:19.634Z,25.95
2023-01-20T02:05:42.502Z,27.42
2023-01-20T02:06:05.640Z,26.60
2023-01-20T02:06:32.645Z,27.27
2023-01-20T02:06:56.739Z,25.98
2023-01-20T02:07:20.257Z,27.33
2023-01-20T02:07:43.590Z,27.02
2023-01-20T02:08:07.139Z,28.60
2023-01-20T02:08:29.849Z,27.52
2023-01-20T02:08:52.647Z,28.55
2023-01-20T02:09:15.484Z,30.05
2023-01-20T02:09:38.187Z,27.42
2023-01-20T02:10:01.510Z,26.95
2023-01-20T02:10:24.541Z,27.27
2023-01-20T02:10:47.275Z,29.58
2023-01-20T02:11:10.031Z,28.77
2023-01-20T02:11:35.633Z,32.50
2023-01-20T02:12:01.009Z,30.33
2023-01-20T02:12:23.854Z,27.20
2023-01-20T02:12:49.525Z,28.65
2023-01-20T02:13:12.277Z,31.10
2023-01-20T02:13:35.008Z,29.50
2023-01-20T02:13:58.725Z,29.67
2023-01-20T02:14:25.295Z,29.15
2023-01-20T02:14:49.043Z,32.03
2023-01-20T02:15:12.181Z,31.33
2023-01-20T02:15:41.120Z,28.50
2023-01-20T02:16:08.355Z,32.28
2023-01-20T02:16:36.218Z,34.25
2023-01-20T02:17:02.252Z,28.48
2023-01-20T02:17:27.174Z,32.70
2023-01-20T02:18:01.968Z,29.33
2023-01-20T02:18:32.807Z,26.73
2023-01-20T02:19:02.480Z,26.48
2023-01-20T02:20:00.167Z,28.27
2023-01-20T02:20:50.891Z,27.17
2023-01-20T02:21:52.858Z,27.40
2023-01-20T02:22:21.644Z,26.85
2023-01-20T02:22:45.689Z,26.90
2023-01-20T02:23:10.778Z,26.00
2023-01-20T02:23:44.424Z,27.10
2023-01-20T02:24:33.934Z,29.75
2023-01-20T02:25:33.272Z,27.60
2023-01-20T02:26:20.879Z,28.38
2023-01-20T02:26:52.521Z,27.92
2023-01-20T02:27:19.885Z,27.83
2023-01-20T02:28:23.856Z,27.52
2023-01-20T02:28:58.423Z,26.35
2023-01-20T02:29:39.224Z,26.95
2023-01-20T02:30:32.073Z,26.25
2023-01-20T02:31:33.067Z,27.38
2023-01-20T02:32:26.580Z,26.80
2023-01-20T02:32:50.728Z,25.95
2023-01-20T02:33:13.683Z,26.48
2023-01-20T02:33:37.278Z,26.13
2023-01-20T02:34:01.129Z,26.25
2023-01-20T02:34:26.311Z,26.67
2023-01-20T02:34:52.332Z,26.50
2023-01-20T02:35:20.142Z,24.95
2023-01-20T02:35:44.835Z,24.83
2023-01-20T02:36:09.149Z,26.40
2023-01-20T02:36:33.922Z,26.00
2023-01-20T02:36:57.940Z,25.20
2023-01-20T02:37:24.010Z,26.20
2023-01-20T02:37:48.645Z,26.15
2023-01-20T02:38:16.182Z,26.13
2023-01-20T02:38:42.058Z,25.73
2023-01-20T02:39:05.968Z,25.15
2023-01-20T02:39:31.208Z,24.58
2023-01-20T02:40:01.082Z,25.17
2023-01-20T02:40:28.176Z,23.95
2023-01-20T02:40:54.601Z,23.77
2023-01-20T02:41:20.706Z,22.83
2023-01-20T02:41:46.995Z,26.10
2023-01-20T02:42:10.894Z,25.67
2023-01-20T02:42:41.522Z,24.48
2023-01-20T02:43:09.115Z,25.98
2023-01-20T02:43:34.772Z,24.50
2023-01-20T02:43:59.700Z,24.92
2023-01-20T02:44:25.313Z,25.85
2023-01-20T02:44:51.393Z,23.60
2023-01-20T02:45:17.753Z,23.70
2023-01-20T02:45:45.506Z,24.05
2023-01-20T02:46:11.323Z,24.98
2023-01-20T02:46:36.348Z,25.25
2023-01-20T02:47:01.542Z,28.95
2023-01-20T02:47:27.689Z,27.30
2023-01-20T02:47:52.729Z,25.98
2023-01-20T02:48:20.058Z,27.10
2023-01-20T02:48:44.675Z,27.42
2023-01-20T02:49:10.370Z,26.25
2023-01-20T02:49:34.603Z,29.50
2023-01-20T02:49:59.456Z,30.40
2023-01-20T02:50:23.343Z,28.50
2023-01-20T02:50:48.971Z,27.75
2023-01-20T02:51:13.654Z,28.25
2023-01-20T02:51:40.432Z,29.35
2023-01-20T02:52:06.976Z,29.00
2023-01-20T02:52:31.373Z,29.48
2023-01-20T02:52:55.815Z,28.10
2023-01-20T02:53:18.569Z,28.02
2023-01-20T02:53:44.007Z,29.00
2023-01-20T02:54:08.375Z,27.20
2023-01-20T02:54:32.362Z,27.58
2023-01-20T02:54:57.033Z,29.88
2023-01-20T02:55:24.483Z,28.88
2023-01-20T02:55:47.916Z,28.33
2023-01-20T02:56:10.746Z,28.63
2023-01-20T02:56:33.509Z,31.15
2023-01-20T02:56:56.490Z,37.85
2023-01-20T02:57:21.952Z,42.63
2023-01-20T02:57:47.966Z,33.15
2023-01-20T02:58:13.535Z,31.50
2023-01-20T02:58:39.784Z,31.38
2023-01-20T02:59:03.708Z,32.17
2023-01-20T02:59:29.347Z,30.67
2023-01-20T02:59:53.370Z,30.95
2023-01-20T03:00:18.328Z,32.35
2023-01-20T03:00:43.940Z,32.20
2023-01-20T03:01:08.636Z,27.90
2023-01-20T03:01:33.737Z,28.80
2023-01-20T03:01:58.633Z,32.60
2023-01-20T03:02:23.388Z,29.55
2023-01-20T03:02:48.206Z,28.10
2023-01-20T03:03:12.783Z,28.33
2023-01-20T03:03:37.251Z,31.08
2023-01-20T03:04:01.092Z,30.52
2023-01-20T03:04:25.299Z,28.75
2023-01-20T03:04:49.356Z,27.02
2023-01-20T03:05:14.866Z,26.13
2023-01-20T03:05:40.255Z,27.17
2023-01-20T03:06:04.382Z,26.23
2023-01-20T03:06:29.855Z,28.30
2023-01-20T03:06:54.475Z,26.45
2023-01-20T03:07:17.246Z,27.15
2023-01-20T03:07:40.605Z,27.33
2023-01-20T03:08:05.453Z,28.00
2023-01-20T03:08:30.881Z,26.60
2023-01-20T03:08:53.977Z,26.23
2023-01-20T03:09:19.219Z,26.02
2023-01-20T03:09:44.532Z,25.52
2023-01-20T03:10:10.618Z,29.35
2023-01-20T03:10:33.970Z,26.15
2023-01-20T03:10:57.327Z,26.73
2023-01-20T03:11:20.101Z,25.63
2023-01-20T03:11:45.955Z,26.52
2023-01-20T03:12:11.918Z,25.67
2023-01-20T03:12:48.350Z,30.33
2023-01-20T03:13:13.882Z,32.22
2023-01-20T03:13:38.993Z,27.88
2023-01-20T03:14:05.348Z,27.20
2023-01-20T03:14:28.335Z,26.73
2023-01-20T03:14:52.348Z,26.42
2023-01-20T03:15:15.676Z,27.77
2023-01-20T03:15:42.464Z,26.25
2023-01-20T03:16:06.923Z,29.38
2023-01-20T03:16:29.749Z,27.02
2023-01-20T03:16:52.653Z,27.05
2023-01-20T03:17:15.374Z,28.15
2023-01-20T03:17:38.084Z,28.73
2023-01-20T03:18:02.381Z,28.73
2023-01-20T03:18:25.369Z,28.35
2023-01-20T03:18:48.223Z,36.60
2023-01-20T03:19:10.993Z,29.98
2023-01-20T03:19:33.933Z,29.25
2023-01-20T03:19:56.656Z,33.17
2023-01-20T03:20:19.448Z,30.48
2023-01-20T03:20:42.154Z,31.60
2023-01-20T03:21:05.359Z,28.23
2023-01-20T03:21:28.168Z,31.60
2023-01-20T03:21:50.949Z,29.73
2023-01-20T03:22:13.741Z,28.15
2023-01-20T03:22:36.826Z,29.70
2023-01-20T03:22:59.680Z,29.92
2023-01-20T03:23:22.456Z,34.92
2023-01-20T03:23:46.227Z,35.17
2023-01-20T03:24:09.304Z,38.45
2023-01-20T03:24:32.199Z,32.38
2023-01-20T03:24:54.890Z,50.60
2023-01-20T03:25:18.252Z,40.55
2023-01-20T03:25:41.276Z,30.13
2023-01-20T03:26:05.208Z,44.15
2023-01-20T03:26:28.264Z,47.67
2023-01-20T03:26:51.135Z,48.08
2023-01-20T03:27:13.927Z,48.15
2023-01-20T03:27:36.857Z,41.03
2023-01-20T03:27:59.619Z,42.03
2023-01-20T03:28:22.411Z,36.10
2023-01-20T03:28:45.583Z,31.92
2023-01-20T03:29:11.529Z,33.50
2023-01-20T03:29:34.832Z,31.25
2023-01-20T03:29:57.763Z,35.63
2023-01-20T03:30:21.640Z,29.90
2023-01-20T03:30:44.566Z,32.25
2023-01-20T03:31:13.450Z,32.30
2023-01-20T03:31:38.194Z,32.50
2023-01-20T03:32:02.135Z,28.88
2023-01-20T03:32:27.103Z,30.33
2023-01-20T03:32:49.852Z,27.77
2023-01-20T03:33:14.159Z,29.25
2023-01-20T03:33:36.944Z,31.73
2023-01-20T03:34:01.025Z,28.05
2023-01-20T03:34:24.718Z,26.00
2023-01-20T03:34:47.374Z,26.40
2023-01-20T03:35:13.324Z,27.70
2023-01-20T03:35:36.263Z,27.92
2023-01-20T03:35:59.044Z,28.15
2023-01-20T03:36:22.929Z,26.77
2023-01-20T03:36:45.789Z,26.23
2023-01-20T03:37:08.614Z,26.67
2023-01-20T03:37:31.381Z,27.88
2023-01-20T03:37:54.109Z,27.40
2023-01-20T03:38:16.811Z,26.67
2023-01-20T03:38:39.590Z,26.77
2023-01-20T03:39:02.546Z,28.50
2023-01-20T03:39:25.609Z,26.48
2023-01-20T03:39:51.769Z,27.40
2023-01-20T03:40:14.612Z,29.90
2023-01-20T03:40:40.678Z,29.85
2023-01-20T03:41:06.749Z,26.30
2023-01-20T03:41:35.064Z,26.42
2023-01-20T03:42:06.290Z,30.00
2023-01-20T03:42:30.474Z,44.58
2023-01-20T03:42:56.281Z,39.72
2023-01-20T03:43:23.376Z,36.50
2023-01-20T03:43:49.576Z,39.30
2023-01-20T03:44:14.525Z,41.05
2023-01-20T03:44:57.130Z,43.22
2023-01-20T03:45:23.716Z,29.73
2023-01-20T03:45:50.602Z,37.63
2023-01-20T03:46:17.654Z,32.13
2023-01-20T03:46:45.300Z,30.77
2023-01-20T03:47:10.478Z,32.45
2023-01-20T03:47:46.341Z,32.13
2023-01-20T03:48:12.635Z,27.83
2023-01-20T03:48:39.945Z,28.75
2023-01-20T03:49:07.240Z,29.20
2023-01-20T03:49:34.126Z,28.70
2023-01-20T03:49:59.358Z,28.27
2023-01-20T03:50:30.451Z,34.75
2023-01-20T03:50:55.416Z,34.80
2023-01-20T03:51:20.741Z,42.45
2023-01-20T03:51:47.304Z,28.20
2023-01-20T03:52:12.607Z,27.83
2023-01-20T03:52:48.121Z,28.42
2023-01-20T03:53:16.521Z,28.75
2023-01-20T03:53:45.546Z,33.85
2023-01-20T03:54:09.642Z,34.90
2023-01-20T03:54:35.477Z,34.00
2023-01-20T03:55:00.620Z,28.27
2023-01-20T03:55:25.227Z,29.02
2023-01-20T03:55:50.119Z,28.33
2023-01-20T03:56:15.045Z,28.30
2023-01-20T03:56:40.649Z,28.08
2023-01-20T03:57:07.015Z,29.63
2023-01-20T03:57:32.228Z,32.97
2023-01-20T03:57:55.870Z,33.33
2023-01-20T03:58:20.900Z,33.83
2023-01-20T03:58:44.816Z,27.05
2023-01-20T03:59:07.703Z,28.23
2023-01-20T03:59:31.406Z,28.58
2023-01-20T03:59:54.183Z,27.00
2023-01-20T04:00:18.588Z,25.77
2023-01-20T04:00:43.878Z,27.30
2023-01-20T04:01:14.961Z,27.65
2023-01-20T04:01:42.786Z,34.42
2023-01-20T04:02:06.878Z,28.17
2023-01-20T04:02:30.110Z,28.90
2023-01-20T04:02:53.979Z,28.27
2023-01-20T04:03:20.065Z,31.40
2023-01-20T04:03:45.985Z,27.15
2023-01-20T04:04:10.256Z,32.78
2023-01-20T04:04:33.459Z,27.08
2023-01-20T04:04:56.188Z,26.50
2023-01-20T04:05:19.087Z,26.73
2023-01-20T04:05:42.321Z,28.60
2023-01-20T04:06:06.099Z,29.17
2023-01-20T04:06:28.822Z,28.60
2023-01-20T04:06:53.982Z,30.23
2023-01-20T04:07:19.080Z,31.10
2023-01-20T04:07:41.895Z,28.58
2023-01-20T04:08:07.141Z,33.13
2023-01-20T04:08:32.081Z,31.95
2023-01-20T04:08:57.070Z,28.38
2023-01-20T04:09:23.134Z,36.45
2023-01-20T04:09:48.489Z,36.50
2023-01-20T04:10:15.081Z,35.78
2023-01-20T04:10:40.404Z,48.25
2023-01-20T04:11:05.215Z,53.22
2023-01-20T04:11:28.061Z,45.70
2023-01-20T04:11:50.963Z,37.88
2023-01-20T04:12:13.768Z,43.78
2023-01-20T04:12:36.652Z,42.72
2023-01-20T04:12:59.444Z,44.90
2023-01-20T04:13:22.175Z,39.97
2023-01-20T04:13:44.904Z,34.67
2023-01-20T04:14:09.152Z,32.63
2023-01-20T04:14:31.919Z,31.25
2023-01-20T04:14:54.646Z,32.60
2023-01-20T04:15:17.875Z,33.10
2023-01-20T04:15:44.641Z,38.67
2023-01-20T04:16:10.981Z,40.80
2023-01-20T04:16:33.783Z,39.63
2023-01-20T04:16:57.412Z,41.75
2023-01-20T04:17:20.175Z,37.03
2023-01-20T04:17:42.900Z,34.20
2023-01-20T04:18:13.354Z,35.38
2023-01-20T04:18:36.526Z,41.88
2023-01-20T04:19:00.767Z,47.78
2023-01-20T04:19:23.564Z,35.92
2023-01-20T04:19:46.429Z,33.45
2023-01-20T04:20:11.856Z,31.58
2023-01-20T04:20:34.725Z,30.35
2023-01-20T04:20:58.586Z,33.22
2023-01-20T04:21:24.194Z,32.13
2023-01-20T04:21:49.148Z,30.00
2023-01-20T04:22:16.413Z,29.02
2023-01-20T04:22:42.576Z,27.70
2023-01-20T04:23:05.389Z,27.80
2023-01-20T04:23:29.684Z,28.83
2023-01-20T04:23:54.912Z,27.85
2023-01-20T04:24:21.211Z,26.77
2023-01-20T04:24:45.142Z,28.52
2023-01-20T04:25:11.813Z,29.05
2023-01-20T04:25:34.884Z,30.50
2023-01-20T04:25:57.676Z,28.95
2023-01-20T04:26:20.497Z,28.50
2023-01-20T04:26:43.376Z,29.08
2023-01-20T04:27:06.163Z,27.48
2023-01-20T04:27:29.180Z,26.80
2023-01-20T04:27:51.916Z,27.00
2023-01-20T04:28:14.673Z,27.08
2023-01-20T04:28:37.453Z,25.10
2023-01-20T04:29:00.333Z,25.73
2023-01-20T04:29:23.094Z,25.75
2023-01-20T04:29:46.935Z,25.48
2023-01-20T04:30:12.379Z,25.45
2023-01-20T04:30:35.191Z,25.70
2023-01-20T04:30:58.055Z,24.63
2023-01-20T04:31:30.178Z,27.08
2023-01-20T04:31:59.429Z,25.90
2023-01-20T04:32:22.385Z,25.92
2023-01-20T04:32:45.226Z,24.92
2023-01-20T04:33:08.177Z,25.20
2023-01-20T04:33:30.969Z,26.13
2023-01-20T04:33:53.778Z,28.00
2023-01-20T04:34:18.052Z,25.02
2023-01-20T04:34:40.834Z,23.95
2023-01-20T04:35:03.625Z,23.90
2023-01-20T04:35:26.564Z,23.55
2023-01-20T04:35:49.366Z,23.65
2023-01-20T04:36:12.097Z,24.25
2023-01-20T04:36:34.813Z,24.10
2023-01-20T04:36:57.611Z,24.58
2023-01-20T04:37:20.501Z,25.65
2023-01-20T04:37:43.248Z,26.15
2023-01-20T04:38:06.793Z,26.05
2023-01-20T04:38:29.615Z,24.33
2023-01-20T04:38:52.437Z,24.00
2023-01-20T04:39:15.304Z,24.83
2023-01-20T04:39:38.089Z,26.52
2023-01-20T04:40:00.858Z,26.27
2023-01-20T04:40:23.726Z,25.10
2023-01-20T04:40:46.511Z,25.88
2023-01-20T04:41:11.561Z,25.63
2023-01-20T04:41:34.404Z,27.63
2023-01-20T04:41:57.254Z,28.10
2023-01-20T04:42:20.036Z,26.17
2023-01-20T04:42:42.748Z,25.70
2023-01-20T04:43:05.630Z,26.13
2023-01-20T04:43:28.392Z,24.30
2023-01-20T04:43:51.227Z,25.25
2023-01-20T04:44:14.000Z,27.08
2023-01-20T04:44:36.757Z,26.75
2023-01-20T04:44:59.674Z,26.00
2023-01-20T04:45:22.437Z,26.42
2023-01-20T04:45:45.167Z,25.55
2023-01-20T04:46:07.935Z,26.67
2023-01-20T04:46:30.860Z,27.83
2023-01-20T04:46:57.135Z,27.88
2023-01-20T04:47:19.893Z,29.45
2023-01-20T04:47:42.689Z,25.80
2023-01-20T04:48:07.566Z,26.88
2023-01-20T04:48:30.389Z,25.70
2023-01-20T04:48:53.145Z,28.30
2023-01-20T04:49:17.406Z,26.50
2023-01-20T04:49:40.295Z,25.92
2023-01-20T04:50:03.053Z,24.75
2023-01-20T04:50:25.802Z,25.45
2023-01-20T04:50:49.634Z,25.35
2023-01-20T04:51:12.469Z,24.25
2023-01-20T04:51:35.309Z,24.02
2023-01-20T04:51:58.202Z,24.45
2023-01-20T04:52:20.986Z,25.10
2023-01-20T04:52:44.017Z,24.77
2023-01-20T04:53:06.724Z,24.63
2023-01-20T04:53:29.449Z,26.08
2023-01-20T04:53:56.296Z,25.60
2023-01-20T04:54:20.177Z,24.30
2023-01-20T04:54:42.997Z,24.45
2023-01-20T04:55:06.411Z,25.58
2023-01-20T04:55:29.171Z,26.60
2023-01-20T04:55:51.888Z,27.17
2023-01-20T04:56:15.264Z,26.80
2023-01-20T04:56:38.089Z,25.77
2023-01-20T04:57:00.876Z,24.85
2023-01-20T04:57:23.675Z,24.48
2023-01-20T04:57:48.037Z,24.58
2023-01-20T04:58:10.824Z,24.23
2023-01-20T04:58:33.718Z,24.92
2023-01-20T04:58:56.417Z,25.85
2023-01-20T04:59:19.231Z,26.20
2023-01-20T04:59:42.523Z,25.15
2023-01-20T05:00:06.736Z,25.60
2023-01-20T05:00:29.630Z,27.00
2023-01-20T05:00:52.379Z,25.00
2023-01-20T05:01:15.212Z,24.25
2023-01-20T05:01:38.316Z,25.98
2023-01-20T05:02:01.591Z,25.42
2023-01-20T05:02:24.649Z,25.58
2023-01-20T05:02:47.575Z,25.23
2023-01-20T05:03:10.491Z,24.75
2023-01-20T05:03:33.349Z,27.85
2023-01-20T05:03:56.255Z,30.25
2023-01-20T05:04:20.656Z,23.52
2023-01-20T05:04:43.428Z,25.85
2023-01-20T05:05:06.758Z,26.20
2023-01-20T05:05:29.597Z,24.67
2023-01-20T05:05:53.998Z,29.05
2023-01-20T05:06:19.353Z,27.85
2023-01-20T05:06:43.529Z,25.55
2023-01-20T05:07:06.342Z,25.73
2023-01-20T05:07:29.116Z,26.67
2023-01-20T05:07:53.522Z,25.25
2023-01-20T05:08:16.313Z,25.20
2023-01-20T05:08:39.215Z,24.60
2023-01-20T05:09:02.074Z,25.10
2023-01-20T05:09:24.817Z,25.73
2023-01-20T05:09:47.559Z,25.27
2023-01-20T05:10:13.154Z,26.30
2023-01-20T05:10:36.609Z,25.02
2023-01-20T05:10:59.427Z,24.25
2023-01-20T05:11:22.223Z,24.95
2023-01-20T05:11:45.152Z,24.50
2023-01-20T05:12:07.968Z,25.05
2023-01-20T05:12:30.702Z,26.33
2023-01-20T05:12:53.450Z,30.38
2023-01-20T05:13:16.223Z,27.02
2023-01-20T05:13:40.336Z,27.10
2023-01-20T05:14:03.076Z,24.55
2023-01-20T05:14:25.853Z,24.92
2023-01-20T05:14:48.574Z,24.90
2023-01-20T05:15:11.559Z,27.77